createdAt,value
2019-02-23T00:00:59.366Z,17.97
2019-02-23T00:04:07.556Z,20.83
2019-02-23T00:07:15.132Z,18.10
2019-02-23T00:10:21.719Z,18.47
2019-02-23T00:13:28.575Z,18.10
2019-02-23T00:16:35.902Z,18.07
2019-02-23T00:19:42.604Z,18.80
2019-02-23T00:22:49.377Z,18.40
2019-02-23T00:25:55.754Z,18.97
2019-02-23T00:29:02.224Z,17.20
2019-02-23T00:32:08.638Z,17.70
2019-02-23T00:35:15.383Z,19.40
2019-02-23T00:38:22.557Z,17.60
2019-02-23T00:41:29.066Z,17.70
2019-02-23T00:44:36.667Z,18.03
2019-02-23T00:47:43.426Z,16.63
2019-02-23T00:50:50.349Z,17.33
2019-02-23T00:53:56.768Z,18.10
2019-02-23T00:57:03.329Z,16.80
2019-02-23T01:00:11.747Z,17.10
2019-02-23T01:03:18.001Z,15.40
2019-02-23T01:06:24.634Z,16.97
2019-02-23T01:09:31.058Z,17.13
2019-02-23T01:12:43.152Z,17.53
2019-02-23T01:15:49.507Z,16.40
2019-02-23T01:18:56.030Z,15.57
2019-02-23T01:22:02.454Z,17.07
2019-02-23T01:25:09.678Z,16.47
2019-02-23T01:28:16.312Z,16.40
2019-02-23T01:31:22.689Z,15.63
2019-02-23T01:34:29.547Z,15.77
2019-02-23T01:37:36.373Z,15.97
2019-02-23T01:40:43.572Z,15.60
2019-02-23T01:43:50.383Z,14.10
2019-02-23T01:46:56.928Z,14.80
2019-02-23T01:50:03.855Z,16.00
2019-02-23T01:53:10.162Z,15.20
2019-02-23T01:56:17.075Z,15.40
2019-02-23T01:59:23.974Z,16.77
2019-02-23T02:02:30.456Z,16.00
2019-02-23T02:05:37.375Z,15.97
2019-02-23T02:08:43.899Z,16.53
2019-02-23T02:11:51.320Z,15.70
2019-02-23T02:14:58.034Z,15.20
2019-02-23T02:18:04.553Z,15.53
2019-02-23T02:21:12.417Z,15.23
2019-02-23T02:24:18.885Z,16.30
2019-02-23T02:27:25.499Z,16.10
2019-02-23T02:30:32.099Z,17.47
2019-02-23T02:34:04.572Z,14.97
2019-02-23T02:37:10.997Z,14.93
2019-02-23T02:40:17.404Z,15.90
2019-02-23T02:43:23.882Z,15.23
2019-02-23T02:46:30.332Z,14.27
2019-02-23T02:49:36.793Z,16.07
2019-02-23T02:52:43.506Z,15.67
2019-02-23T02:55:49.663Z,15.80
2019-02-23T02:58:56.204Z,15.63
2019-02-23T03:02:02.773Z,14.70
2019-02-23T03:05:10.563Z,15.27
2019-02-23T03:08:17.245Z,16.00
2019-02-23T03:11:24.349Z,15.30
2019-02-23T03:14:31.147Z,16.03
2019-02-23T03:17:37.401Z,16.13
2019-02-23T03:20:43.897Z,15.93
2019-02-23T03:23:50.541Z,16.10
2019-02-23T03:26:58.701Z,16.70
2019-02-23T03:30:06.114Z,16.90
2019-02-23T03:33:12.770Z,16.23
2019-02-23T03:36:19.912Z,16.83
2019-02-23T03:39:26.582Z,20.00
2019-02-23T03:42:33.357Z,18.40
2019-02-23T03:45:39.983Z,19.10
2019-02-23T03:48:46.395Z,19.00
2019-02-23T03:51:52.772Z,18.90
2019-02-23T03:54:59.751Z,17.50
2019-02-23T03:58:06.436Z,16.10
2019-02-23T04:01:13.213Z,18.40
2019-02-23T04:04:20.137Z,16.53
2019-02-23T04:07:26.510Z,16.90
2019-02-23T04:10:33.459Z,16.60
2019-02-23T04:13:40.197Z,16.90
2019-02-23T04:16:46.699Z,17.77
2019-02-23T04:19:53.601Z,17.77
2019-02-23T04:23:00.059Z,16.17
2019-02-23T04:26:06.554Z,15.10
2019-02-23T04:29:13.149Z,16.23
2019-02-23T04:32:20.138Z,16.10
2019-02-23T04:35:26.864Z,15.37
2019-02-23T04:38:33.322Z,15.97
2019-02-23T04:41:40.179Z,16.00
2019-02-23T04:44:46.745Z,16.07
2019-02-23T04:47:53.281Z,15.20
2019-02-23T04:51:00.399Z,15.20
2019-02-23T04:54:07.247Z,15.53
2019-02-23T04:57:14.358Z,15.20
2019-02-23T05:00:21.062Z,16.73
2019-02-23T05:03:27.894Z,15.57
2019-02-23T05:06:35.017Z,16.10
2019-02-23T05:09:41.623Z,15.37
2019-02-23T05:12:48.394Z,15.47
2019-02-23T05:15:55.063Z,15.17
2019-02-23T05:19:01.447Z,15.97
2019-02-23T05:22:08.389Z,13.87
2019-02-23T05:25:15.117Z,15.43
2019-02-23T05:28:21.711Z,14.90
2019-02-23T05:31:29.307Z,15.63
2019-02-23T05:34:35.949Z,15.97
2019-02-23T05:37:42.223Z,15.07
2019-02-23T05:40:48.868Z,14.90
2019-02-23T05:43:55.480Z,14.17
2019-02-23T05:47:02.270Z,14.73
2019-02-23T05:50:09.183Z,16.50
2019-02-23T05:53:15.975Z,16.33
2019-02-23T05:56:22.410Z,15.40
2019-02-23T05:59:29.251Z,15.47
2019-02-23T06:02:35.958Z,15.40
2019-02-23T06:05:42.746Z,14.90
2019-02-23T06:08:49.916Z,17.20
2019-02-23T06:11:56.802Z,16.17
2019-02-23T06:15:03.881Z,16.40
2019-02-23T06:18:10.857Z,16.00
2019-02-23T06:21:17.346Z,13.90
2019-02-23T06:24:23.773Z,16.07
2019-02-23T06:27:30.243Z,15.13
2019-02-23T06:30:36.700Z,14.97
2019-02-23T06:33:45.635Z,16.50
2019-02-23T06:36:52.189Z,16.40
2019-02-23T06:39:59.047Z,16.00
2019-02-23T06:43:06.123Z,16.00
2019-02-23T06:46:13.712Z,12.50
2019-02-23T06:49:20.750Z,13.53
2019-02-23T06:52:27.430Z,15.83
2019-02-23T06:55:36.511Z,14.70
2019-02-23T06:58:43.391Z,14.70
2019-02-23T07:01:51.539Z,14.50
2019-02-23T07:04:59.465Z,15.30
2019-02-23T07:08:06.423Z,14.73
2019-02-23T07:11:13.125Z,15.27
2019-02-23T07:14:19.785Z,16.07
2019-02-23T07:17:26.627Z,15.93
2019-02-23T07:20:43.888Z,14.83
2019-02-23T07:23:43.068Z,14.87
2019-02-23T07:26:50.866Z,15.80
2019-02-23T07:29:58.204Z,15.20
2019-02-23T07:33:08.321Z,19.20
2019-02-23T07:36:14.933Z,18.77
2019-02-23T07:39:21.497Z,16.90
2019-02-23T07:42:29.022Z,15.17
2019-02-23T07:45:35.599Z,13.90
2019-02-23T07:48:42.319Z,14.67
2019-02-23T07:51:49.144Z,14.90
2019-02-23T07:54:56.190Z,15.33
2019-02-23T07:58:03.088Z,15.80
2019-02-23T08:01:10.118Z,16.40
2019-02-23T08:04:16.730Z,16.00
2019-02-23T08:07:23.424Z,17.93
2019-02-23T08:10:30.032Z,16.67
2019-02-23T08:13:36.820Z,17.20
2019-02-23T08:16:43.557Z,15.43
2019-02-23T08:19:50.044Z,13.60
2019-02-23T08:22:56.241Z,14.10
2019-02-23T08:26:03.230Z,11.97
2019-02-23T08:29:09.689Z,13.67
2019-02-23T08:32:16.506Z,13.93
2019-02-23T08:35:23.482Z,14.87
2019-02-23T08:38:30.319Z,15.30
2019-02-23T08:41:39.244Z,13.80
2019-02-23T08:44:46.210Z,13.70
2019-02-23T08:47:53.032Z,12.80
2019-02-23T08:50:59.364Z,12.30
2019-02-23T08:54:06.711Z,12.67
2019-02-23T08:57:13.148Z,12.10
2019-02-23T09:00:20.083Z,12.47
2019-02-23T09:03:26.793Z,12.53
2019-02-23T09:06:34.785Z,12.80
2019-02-23T09:09:41.470Z,13.80
2019-02-23T09:12:48.735Z,14.20
2019-02-23T09:15:55.218Z,13.40
2019-02-23T09:19:01.861Z,13.40
2019-02-23T09:22:08.508Z,13.33
2019-02-23T09:25:15.508Z,14.30
2019-02-23T09:28:22.423Z,13.53
2019-02-23T09:31:30.495Z,12.17
2019-02-23T09:34:37.689Z,12.90
2019-02-23T09:37:44.322Z,11.37
2019-02-23T09:40:51.806Z,10.27
2019-02-23T09:44:00.894Z,11.83
2019-02-23T09:47:07.614Z,10.80
2019-02-23T09:50:14.548Z,9.63
2019-02-23T09:53:22.437Z,11.10
2019-02-23T09:56:28.993Z,9.50
2019-02-23T09:59:35.628Z,11.20
2019-02-23T10:02:42.635Z,10.97
2019-02-23T10:05:49.343Z,11.87
2019-02-23T10:08:56.311Z,9.73
2019-02-23T10:12:03.479Z,8.57
2019-02-23T10:15:10.231Z,8.83
2019-02-23T10:18:17.105Z,7.60
2019-02-23T10:21:23.712Z,8.53
2019-02-23T10:24:30.816Z,7.90
2019-02-23T10:27:37.811Z,7.77
2019-02-23T10:30:44.013Z,7.63
2019-02-23T10:33:51.033Z,7.57
2019-02-23T10:36:58.021Z,7.10
2019-02-23T10:40:04.923Z,6.60
2019-02-23T10:43:11.656Z,7.20
2019-02-23T10:46:18.022Z,8.97
2019-02-23T10:49:24.777Z,7.47
2019-02-23T10:52:33.672Z,7.97
2019-02-23T10:55:40.896Z,8.00
2019-02-23T10:58:49.450Z,8.10
2019-02-23T11:01:58.224Z,8.03
2019-02-23T11:05:05.859Z,7.60
2019-02-23T11:08:12.786Z,9.10
2019-02-23T11:11:19.607Z,7.10
2019-02-23T11:14:26.336Z,7.77
2019-02-23T11:17:34.940Z,7.50
2019-02-23T11:20:42.078Z,8.00
2019-02-23T11:23:48.700Z,12.37
2019-02-23T11:26:55.402Z,15.83
2019-02-23T11:30:02.168Z,9.00
2019-02-23T11:33:08.818Z,8.20
2019-02-23T11:36:18.323Z,8.60
2019-02-23T11:39:26.183Z,8.27
2019-02-23T11:42:32.649Z,8.10
2019-02-23T11:45:39.397Z,12.33
2019-02-23T11:48:47.310Z,8.27
2019-02-23T11:51:54.055Z,8.27
2019-02-23T11:55:00.753Z,9.17
2019-02-23T11:58:07.435Z,5.97
2019-02-23T12:01:14.506Z,5.63
2019-02-23T12:04:21.333Z,5.30
2019-02-23T12:07:27.813Z,5.83
2019-02-23T12:10:34.375Z,7.10
2019-02-23T12:13:42.382Z,5.57
2019-02-23T12:16:49.782Z,5.67
2019-02-23T12:19:57.051Z,4.80
2019-02-23T12:23:03.694Z,5.13
2019-02-23T12:26:11.174Z,4.97
2019-02-23T12:29:17.971Z,4.57
2019-02-23T12:32:25.694Z,15.67
2019-02-23T12:35:32.943Z,5.70
2019-02-23T12:38:39.877Z,3.47
2019-02-23T12:41:46.783Z,4.30
2019-02-23T12:44:53.339Z,4.30
2019-02-23T12:48:00.601Z,3.93
2019-02-23T12:51:10.416Z,3.97
2019-02-23T12:54:17.279Z,3.00
2019-02-23T12:57:24.203Z,3.30
2019-02-23T13:00:31.184Z,3.43
2019-02-23T13:03:37.816Z,3.60
2019-02-23T13:06:44.385Z,3.53
2019-02-23T13:09:53.234Z,3.37
2019-02-23T13:13:37.019Z,3.00
2019-02-23T13:17:26.581Z,2.70
2019-02-23T13:20:57.839Z,2.80
2019-02-23T13:24:41.264Z,2.50
2019-02-23T13:28:27.864Z,3.30
2019-02-23T13:32:11.704Z,2.47
2019-02-23T13:35:54.512Z,2.57
2019-02-23T13:39:30.596Z,2.53
2019-02-23T13:43:12.882Z,2.83
2019-02-23T13:46:43.498Z,4.00
2019-02-23T13:50:36.011Z,2.73
2019-02-23T13:54:38.841Z,2.70
2019-02-23T13:58:13.676Z,3.00
2019-02-23T14:01:37.643Z,2.60
2019-02-23T14:05:10.607Z,6.20
2019-02-23T14:08:49.493Z,3.53
2019-02-23T14:12:18.564Z,6.90
2019-02-23T14:15:50.585Z,4.07
2019-02-23T14:19:17.219Z,3.83
2019-02-23T14:23:03.260Z,4.83
2019-02-23T14:27:00.335Z,4.30
2019-02-23T14:30:44.732Z,14.57
2019-02-23T14:34:37.807Z,5.00
2019-02-23T14:38:40.184Z,4.60
2019-02-23T14:42:11.224Z,4.83
2019-02-23T14:45:55.980Z,5.53
2019-02-23T14:49:37.994Z,4.90
2019-02-23T14:53:34.224Z,5.30
2019-02-23T14:57:30.807Z,5.17
2019-02-23T15:01:27.543Z,6.20
2019-02-23T15:05:10.113Z,5.83
2019-02-23T15:08:45.422Z,6.10
2019-02-23T15:12:26.360Z,9.83
2019-02-23T15:15:54.668Z,6.70
2019-02-23T15:19:45.302Z,6.70
2019-02-23T15:23:16.348Z,8.60
2019-02-23T15:26:54.595Z,10.47
2019-02-23T15:30:34.139Z,7.03
2019-02-23T15:34:40.030Z,6.40
2019-02-23T15:38:37.859Z,6.80
2019-02-23T15:42:26.037Z,5.90
2019-02-23T15:46:12.959Z,5.37
2019-02-23T15:49:36.360Z,5.57
2019-02-23T15:52:43.319Z,4.60
2019-02-23T15:55:50.144Z,3.90
2019-02-23T15:58:56.929Z,4.10
2019-02-23T16:02:03.477Z,4.53
2019-02-23T16:05:10.268Z,4.30
2019-02-23T16:08:17.496Z,3.83
2019-02-23T16:11:24.612Z,3.20
2019-02-23T16:14:31.384Z,4.00
2019-02-23T16:17:38.088Z,3.00
2019-02-23T16:20:44.758Z,3.00
2019-02-23T16:23:51.709Z,3.13
2019-02-23T16:26:58.976Z,3.77
2019-02-23T16:30:06.995Z,4.37
2019-02-23T16:33:13.764Z,3.47
2019-02-23T16:36:20.651Z,3.60
2019-02-23T16:39:29.952Z,3.20
2019-02-23T16:42:36.401Z,3.57
2019-02-23T16:45:43.085Z,3.60
2019-02-23T16:48:51.233Z,3.10
2019-02-23T16:51:58.268Z,3.83
2019-02-23T16:55:05.062Z,3.33
2019-02-23T16:58:15.429Z,3.33
2019-02-23T17:01:27.519Z,6.40
2019-02-23T17:04:34.199Z,5.17
2019-02-23T17:07:41.123Z,3.50
2019-02-23T17:10:48.639Z,4.10
2019-02-23T17:13:56.920Z,4.00
2019-02-23T17:17:05.046Z,4.70
2019-02-23T17:20:12.025Z,3.70
2019-02-23T17:23:19.517Z,4.47
2019-02-23T17:26:26.045Z,4.50
2019-02-23T17:29:35.307Z,4.97
2019-02-23T17:32:42.516Z,17.70
2019-02-23T17:35:49.381Z,11.83
2019-02-23T17:38:57.468Z,20.77
2019-02-23T17:42:04.218Z,23.83
2019-02-23T17:45:11.284Z,12.50
2019-02-23T17:48:18.987Z,9.00
2019-02-23T17:51:26.483Z,5.47
2019-02-23T17:54:33.499Z,6.00
2019-02-23T17:57:40.381Z,5.40
2019-02-23T18:00:46.941Z,5.97
2019-02-23T18:03:55.037Z,5.30
2019-02-23T18:07:02.116Z,6.10
2019-02-23T18:10:08.916Z,5.40
2019-02-23T18:13:16.153Z,6.90
2019-02-23T18:16:23.156Z,4.57
2019-02-23T18:19:30.017Z,5.47
2019-02-23T18:22:38.521Z,4.33
2019-02-23T18:25:46.642Z,5.47
2019-02-23T18:28:53.029Z,4.70
2019-02-23T18:31:59.723Z,6.20
2019-02-23T18:35:08.730Z,5.67
2019-02-23T18:38:15.792Z,5.40
2019-02-23T18:41:22.868Z,6.30
2019-02-23T18:44:30.324Z,6.20
2019-02-23T18:47:37.239Z,6.90
2019-02-23T18:50:44.127Z,6.30
2019-02-23T18:53:51.386Z,24.47
2019-02-23T18:56:58.273Z,30.87
2019-02-23T19:00:05.389Z,29.60
2019-02-23T19:03:13.136Z,17.23
2019-02-23T19:06:19.761Z,13.23
2019-02-23T19:09:26.971Z,14.17
2019-02-23T19:12:33.527Z,13.30
2019-02-23T19:15:40.551Z,9.87
2019-02-23T19:18:48.831Z,9.30
2019-02-23T19:21:55.298Z,8.43
2019-02-23T19:25:02.808Z,7.90
2019-02-23T19:28:10.211Z,7.77
2019-02-23T19:31:17.188Z,8.10
2019-02-23T19:34:24.338Z,8.27
2019-02-23T19:37:32.592Z,7.93
2019-02-23T19:40:39.848Z,7.80
2019-02-23T19:43:46.774Z,7.47
2019-02-23T19:47:00.444Z,8.23
2019-02-23T19:50:23.045Z,8.80
2019-02-23T19:53:30.682Z,7.90
2019-02-23T19:56:46.443Z,8.80
2019-02-23T19:59:49.481Z,7.63
2019-02-23T20:02:55.992Z,7.00
2019-02-23T20:06:03.091Z,7.60
2019-02-23T20:09:10.132Z,8.10
2019-02-23T20:12:18.345Z,8.70
2019-02-23T20:15:25.247Z,20.80
2019-02-23T20:18:32.029Z,15.13
2019-02-23T20:21:42.037Z,15.07
2019-02-23T20:24:49.024Z,15.90
2019-02-23T20:27:56.379Z,11.03
2019-02-23T20:31:03.315Z,10.70
2019-02-23T20:34:09.841Z,9.93
2019-02-23T20:37:16.453Z,10.37
2019-02-23T20:40:23.661Z,9.70
2019-02-23T20:43:30.658Z,7.47
2019-02-23T20:46:37.974Z,8.37
2019-02-23T20:49:45.408Z,8.90
2019-02-23T20:52:54.071Z,8.23
2019-02-23T20:56:00.657Z,8.60
2019-02-23T20:59:08.593Z,7.57
2019-02-23T21:02:15.807Z,8.23
2019-02-23T21:05:22.593Z,8.60
2019-02-23T21:08:29.518Z,7.93
2019-02-23T21:11:37.354Z,8.30
2019-02-23T21:14:43.729Z,7.57
2019-02-23T21:17:52.027Z,6.87
2019-02-23T21:21:02.413Z,7.60
2019-02-23T21:24:09.328Z,7.03
2019-02-23T21:27:17.087Z,7.40
2019-02-23T21:30:24.179Z,7.40
2019-02-23T21:33:31.958Z,6.70
2019-02-23T21:36:38.905Z,6.77
2019-02-23T21:39:45.913Z,6.30
2019-02-23T21:42:52.598Z,7.60
2019-02-23T21:45:59.255Z,7.20
2019-02-23T21:49:06.581Z,7.10
2019-02-23T21:52:13.356Z,6.90
2019-02-23T21:55:21.581Z,6.60
2019-02-23T21:58:29.137Z,6.30
2019-02-23T22:01:36.565Z,6.13
2019-02-23T22:04:43.829Z,6.00
2019-02-23T22:07:50.766Z,6.50
2019-02-23T22:10:57.193Z,6.60
2019-02-23T22:14:04.512Z,5.90
2019-02-23T22:17:11.707Z,7.90
2019-02-23T22:20:18.101Z,6.37
2019-02-23T22:23:25.277Z,8.70
2019-02-23T22:26:32.544Z,9.00
2019-02-23T22:29:39.749Z,7.90
2019-02-23T22:32:46.581Z,9.20
2019-02-23T22:35:53.408Z,8.10
2019-02-23T22:38:59.922Z,8.03
2019-02-23T22:42:06.736Z,7.90
2019-02-23T22:45:13.499Z,8.87
2019-02-23T22:48:20.650Z,8.77
2019-02-23T22:51:27.960Z,7.70
2019-02-23T22:54:35.469Z,8.70
2019-02-23T22:57:42.283Z,8.33
2019-02-23T23:00:54.480Z,8.10
2019-02-23T23:04:02.272Z,8.60
2019-02-23T23:07:11.422Z,8.77
2019-02-23T23:10:18.297Z,8.30
2019-02-23T23:13:25.280Z,7.60
2019-02-23T23:16:31.937Z,8.60
2019-02-23T23:19:38.643Z,8.63
2019-02-23T23:22:45.100Z,8.40
2019-02-23T23:25:52.240Z,8.83
2019-02-23T23:28:59.118Z,9.10
2019-02-23T23:32:06.448Z,8.80
2019-02-23T23:35:13.028Z,7.33
2019-02-23T23:38:19.481Z,8.70
2019-02-23T23:41:27.151Z,9.07
2019-02-23T23:44:33.348Z,7.83
2019-02-23T23:47:40.187Z,7.10
2019-02-23T23:50:47.602Z,6.27
2019-02-23T23:53:54.546Z,6.37
2019-02-23T23:57:01.796Z,6.90
